sensor_id;sensor_type;location;lat;lon;timestamp;P1;durP1;ratioP1;P2;durP2;ratioP2
72369;SDS011;60343;-32.030;115.880;2023-03-16T00:00:12;3.88;;;1.00;;
72369;SDS011;60343;-32.030;115.880;2023-03-16T00:02:47;3.22;;;1.10;;
72369;SDS011;60343;-32.030;115.880;2023-03-16T00:05:27;5.15;;;1.20;;
72369;SDS011;60343;-32.030;115.880;2023-03-16T00:08:01;4.90;;;0.98;;
72369;SDS011;60343;-32.030;115.880;2023-03-16T00:10:36;4.75;;;1.20;;
72369;SDS011;60343;-32.030;115.880;2023-03-16T00:13:12;2.72;;;0.98;;
72369;SDS011;60343;-32.030;115.880;2023-03-16T00:15:52;3.95;;;1.25;;
72369;SDS011;60343;-32.030;115.880;2023-03-16T00:18:28;3.72;;;1.00;;
72369;SDS011;60343;-32.030;115.880;2023-03-16T00:21:10;2.97;;;1.20;;
72369;SDS011;60343;-32.030;115.880;2023-03-16T00:23:46;4.63;;;1.30;;
72369;SDS011;60343;-32.030;115.880;2023-03-16T00:26:21;6.82;;;1.27;;
72369;SDS011;60343;-32.030;115.880;2023-03-16T00:28:56;5.22;;;1.20;;
72369;SDS011;60343;-32.030;115.880;2023-03-16T00:31:31;4.63;;;1.23;;
72369;SDS011;60343;-32.030;115.880;2023-03-16T00:34:09;3.40;;;1.00;;
72369;SDS011;60343;-32.030;115.880;2023-03-16T00:36:49;3.95;;;1.35;;
72369;SDS011;60343;-32.030;115.880;2023-03-16T00:39:23;7.00;;;0.98;;
72369;SDS011;60343;-32.030;115.880;2023-03-16T00:42:00;4.32;;;1.10;;
72369;SDS011;60343;-32.030;115.880;2023-03-16T00:44:35;5.22;;;1.20;;
72369;SDS011;60343;-32.030;115.880;2023-03-16T00:47:10;4.50;;;1.10;;
72369;SDS011;60343;-32.030;115.880;2023-03-16T00:49:45;6.05;;;1.13;;
72369;SDS011;60343;-32.030;115.880;2023-03-16T00:52:25;3.78;;;0.93;;
72369;SDS011;60343;-32.030;115.880;2023-03-16T00:55:01;4.30;;;1.10;;
72369;SDS011;60343;-32.030;115.880;2023-03-16T00:57:36;3.80;;;1.17;;
72369;SDS011;60343;-32.030;115.880;2023-03-16T01:00:11;4.38;;;1.27;;
72369;SDS011;60343;-32.030;115.880;2023-03-16T01:02:48;3.22;;;1.23;;
72369;SDS011;60343;-32.030;115.880;2023-03-16T01:05:22;4.20;;;1.20;;
72369;SDS011;60343;-32.030;115.880;2023-03-16T01:08:04;5.82;;;1.55;;
72369;SDS011;60343;-32.030;115.880;2023-03-16T01:10:38;4.10;;;1.10;;
72369;SDS011;60343;-32.030;115.880;2023-03-16T01:13:13;4.68;;;1.30;;
72369;SDS011;60343;-32.030;115.880;2023-03-16T01:15:49;2.28;;;0.90;;
72369;SDS011;60343;-32.030;115.880;2023-03-16T01:18:24;2.13;;;1.00;;
72369;SDS011;60343;-32.030;115.880;2023-03-16T01:20:59;3.50;;;1.00;;
72369;SDS011;60343;-32.030;115.880;2023-03-16T01:23:39;3.42;;;1.17;;
72369;SDS011;60343;-32.030;115.880;2023-03-16T01:26:14;3.72;;;1.15;;
72369;SDS011;60343;-32.030;115.880;2023-03-16T01:28:50;2.45;;;0.80;;
72369;SDS011;60343;-32.030;115.880;2023-03-16T01:31:24;4.07;;;1.08;;
72369;SDS011;60343;-32.030;115.880;2023-03-16T01:33:59;3.95;;;0.90;;
72369;SDS011;60343;-32.030;115.880;2023-03-16T01:36:34;4.53;;;1.20;;
72369;SDS011;60343;-32.030;115.880;2023-03-16T01:39:15;3.10;;;1.00;;
72369;SDS011;60343;-32.030;115.880;2023-03-16T01:41:50;2.42;;;0.90;;
72369;SDS011;60343;-32.030;115.880;2023-03-16T01:44:25;6.30;;;1.10;;
72369;SDS011;60343;-32.030;115.880;2023-03-16T01:47:00;4.00;;;0.80;;
72369;SDS011;60343;-32.030;115.880;2023-03-16T01:49:35;3.75;;;0.88;;
72369;SDS011;60343;-32.030;115.880;2023-03-16T01:52:13;3.22;;;0.70;;
72369;SDS011;60343;-32.030;115.880;2023-03-16T01:54:57;1.88;;;0.60;;
72369;SDS011;60343;-32.030;115.880;2023-03-16T01:57:35;3.95;;;0.50;;
72369;SDS011;60343;-32.030;115.880;2023-03-16T02:00:13;1.42;;;0.30;;
72369;SDS011;60343;-32.030;115.880;2023-03-16T02:02:57;2.15;;;0.28;;
72369;SDS011;60343;-32.030;115.880;2023-03-16T02:05:39;3.15;;;0.40;;
72369;SDS011;60343;-32.030;115.880;2023-03-16T02:08:18;2.50;;;0.30;;
72369;SDS011;60343;-32.030;115.880;2023-03-16T02:10:59;1.63;;;0.32;;
72369;SDS011;60343;-32.030;115.880;2023-03-16T02:13:35;1.17;;;0.22;;
72369;SDS011;60343;-32.030;115.880;2023-03-16T02:16:09;3.80;;;0.40;;
72369;SDS011;60343;-32.030;115.880;2023-03-16T02:18:48;3.03;;;0.32;;
72369;SDS011;60343;-32.030;115.880;2023-03-16T02:21:25;2.05;;;0.30;;
72369;SDS011;60343;-32.030;115.880;2023-03-16T02:24:06;3.28;;;0.35;;
72369;SDS011;60343;-32.030;115.880;2023-03-16T02:26:48;0.60;;;0.20;;
72369;SDS011;60343;-32.030;115.880;2023-03-16T02:29:30;1.95;;;0.50;;
72369;SDS011;60343;-32.030;115.880;2023-03-16T02:32:28;1.23;;;0.20;;
72369;SDS011;60343;-32.030;115.880;2023-03-16T02:35:05;0.68;;;0.20;;
72369;SDS011;60343;-32.030;115.880;2023-03-16T02:37:41;3.72;;;0.35;;
72369;SDS011;60343;-32.030;115.880;2023-03-16T02:40:19;2.03;;;0.40;;
72369;SDS011;60343;-32.030;115.880;2023-03-16T02:45:38;1.30;;;0.20;;
72369;SDS011;60343;-32.030;115.880;2023-03-16T02:48:16;3.30;;;0.50;;
72369;SDS011;60343;-32.030;115.880;2023-03-16T02:50:54;1.25;;;0.20;;
72369;SDS011;60343;-32.030;115.880;2023-03-16T02:53:28;2.38;;;0.30;;
72369;SDS011;60343;-32.030;115.880;2023-03-16T02:56:03;2.30;;;0.30;;
72369;SDS011;60343;-32.030;115.880;2023-03-16T02:58:38;1.10;;;0.10;;
72369;SDS011;60343;-32.030;115.880;2023-03-16T03:01:18;1.77;;;0.30;;
72369;SDS011;60343;-32.030;115.880;2023-03-16T03:03:52;0.82;;;0.22;;
72369;SDS011;60343;-32.030;115.880;2023-03-16T03:06:27;0.93;;;0.20;;
72369;SDS011;60343;-32.030;115.880;2023-03-16T03:09:02;1.90;;;0.20;;
72369;SDS011;60343;-32.030;115.880;2023-03-16T03:11:37;1.23;;;0.20;;
72369;SDS011;60343;-32.030;115.880;2023-03-16T03:14:12;0.95;;;0.15;;
72369;SDS011;60343;-32.030;115.880;2023-03-16T03:16:52;1.92;;;0.30;;
72369;SDS011;60343;-32.030;115.880;2023-03-16T03:19:27;1.75;;;0.40;;
72369;SDS011;60343;-32.030;115.880;2023-03-16T03:22:02;1.60;;;0.25;;
72369;SDS011;60343;-32.030;115.880;2023-03-16T03:24:37;2.13;;;0.20;;
72369;SDS011;60343;-32.030;115.880;2023-03-16T03:27:12;0.75;;;0.28;;
72369;SDS011;60343;-32.030;115.880;2023-03-16T03:29:47;3.35;;;0.60;;
72369;SDS011;60343;-32.030;115.880;2023-03-16T03:32:27;0.88;;;0.20;;
72369;SDS011;60343;-32.030;115.880;2023-03-16T03:35:02;0.50;;;0.20;;
72369;SDS011;60343;-32.030;115.880;2023-03-16T03:37:37;2.90;;;0.30;;
72369;SDS011;60343;-32.030;115.880;2023-03-16T03:40:13;1.65;;;0.20;;
72369;SDS011;60343;-32.030;115.880;2023-03-16T03:42:49;2.05;;;0.30;;
72369;SDS011;60343;-32.030;115.880;2023-03-16T03:45:24;1.67;;;0.50;;
72369;SDS011;60343;-32.030;115.880;2023-03-16T03:48:04;1.55;;;0.20;;
72369;SDS011;60343;-32.030;115.880;2023-03-16T03:50:38;1.67;;;0.47;;
72369;SDS011;60343;-32.030;115.880;2023-03-16T03:53:13;2.30;;;0.32;;
72369;SDS011;60343;-32.030;115.880;2023-03-16T03:55:47;1.27;;;0.20;;
72369;SDS011;60343;-32.030;115.880;2023-03-16T03:58:21;2.10;;;0.30;;
72369;SDS011;60343;-32.030;115.880;2023-03-16T04:00:56;1.48;;;0.30;;
72369;SDS011;60343;-32.030;115.880;2023-03-16T04:03:36;1.40;;;0.30;;
72369;SDS011;60343;-32.030;115.880;2023-03-16T04:06:10;1.88;;;0.40;;
72369;SDS011;60343;-32.030;115.880;2023-03-16T04:08:45;2.03;;;0.40;;
72369;SDS011;60343;-32.030;115.880;2023-03-16T04:11:19;1.35;;;0.20;;
72369;SDS011;60343;-32.030;115.880;2023-03-16T04:13:54;2.42;;;0.43;;
72369;SDS011;60343;-32.030;115.880;2023-03-16T04:16:29;0.75;;;0.22;;
72369;SDS011;60343;-32.030;115.880;2023-03-16T04:19:09;2.42;;;0.20;;
72369;SDS011;60343;-32.030;115.880;2023-03-16T04:21:44;0.88;;;0.20;;
72369;SDS011;60343;-32.030;115.880;2023-03-16T04:24:18;1.27;;;0.30;;
72369;SDS011;60343;-32.030;115.880;2023-03-16T04:26:53;1.08;;;0.20;;
72369;SDS011;60343;-32.030;115.880;2023-03-16T04:29:27;1.33;;;0.10;;
72369;SDS011;60343;-32.030;115.880;2023-03-16T04:32:02;1.75;;;0.30;;
72369;SDS011;60343;-32.030;115.880;2023-03-16T04:34:42;1.73;;;0.30;;
72369;SDS011;60343;-32.030;115.880;2023-03-16T04:37:20;2.05;;;0.20;;
72369;SDS011;60343;-32.030;115.880;2023-03-16T04:39:55;0.95;;;0.10;;
72369;SDS011;60343;-32.030;115.880;2023-03-16T04:42:34;1.23;;;0.20;;
72369;SDS011;60343;-32.030;115.880;2023-03-16T04:45:09;1.08;;;0.20;;
72369;SDS011;60343;-32.030;115.880;2023-03-16T04:47:44;0.95;;;0.17;;
72369;SDS011;60343;-32.030;115.880;2023-03-16T04:50:25;0.93;;;0.20;;
72369;SDS011;60343;-32.030;115.880;2023-03-16T04:53:00;0.95;;;0.15;;
72369;SDS011;60343;-32.030;115.880;2023-03-16T04:55:35;0.70;;;0.10;;
72369;SDS011;60343;-32.030;115.880;2023-03-16T04:58:10;0.82;;;0.20;;
72369;SDS011;60343;-32.030;115.880;2023-03-16T05:00:45;0.65;;;0.20;;
72369;SDS011;60343;-32.030;115.880;2023-03-16T05:03:19;1.17;;;0.15;;
72369;SDS011;60343;-32.030;115.880;2023-03-16T05:05:59;1.52;;;0.32;;
72369;SDS011;60343;-32.030;115.880;2023-03-16T05:08:35;1.38;;;0.20;;
72369;SDS011;60343;-32.030;115.880;2023-03-16T05:11:09;1.35;;;0.10;;
72369;SDS011;60343;-32.030;115.880;2023-03-16T05:13:44;1.52;;;0.20;;
72369;SDS011;60343;-32.030;115.880;2023-03-16T05:16:18;1.35;;;0.20;;
72369;SDS011;60343;-32.030;115.880;2023-03-16T05:18:53;1.08;;;0.20;;
72369;SDS011;60343;-32.030;115.880;2023-03-16T05:21:36;6.28;;;0.50;;
72369;SDS011;60343;-32.030;115.880;2023-03-16T05:24:10;2.50;;;0.43;;
72369;SDS011;60343;-32.030;115.880;2023-03-16T05:26:45;3.33;;;0.20;;
72369;SDS011;60343;-32.030;115.880;2023-03-16T05:29:19;1.45;;;0.20;;
72369;SDS011;60343;-32.030;115.880;2023-03-16T05:31:54;2.55;;;0.30;;
72369;SDS011;60343;-32.030;115.880;2023-03-16T05:34:29;2.70;;;0.40;;
72369;SDS011;60343;-32.030;115.880;2023-03-16T05:37:09;4.35;;;0.40;;
72369;SDS011;60343;-32.030;115.880;2023-03-16T05:39:44;3.80;;;0.22;;
72369;SDS011;60343;-32.030;115.880;2023-03-16T05:42:18;1.23;;;0.20;;
72369;SDS011;60343;-32.030;115.880;2023-03-16T05:44:53;1.85;;;0.22;;
72369;SDS011;60343;-32.030;115.880;2023-03-16T05:47:27;1.20;;;0.32;;
72369;SDS011;60343;-32.030;115.880;2023-03-16T05:50:02;0.57;;;0.10;;
72369;SDS011;60343;-32.030;115.880;2023-03-16T05:52:43;0.52;;;0.00;;
72369;SDS011;60343;-32.030;115.880;2023-03-16T05:55:19;0.43;;;0.10;;
72369;SDS011;60343;-32.030;115.880;2023-03-16T05:57:54;0.00;;;0.00;;
72369;SDS011;60343;-32.030;115.880;2023-03-16T06:00:28;1.35;;;0.10;;
72369;SDS011;60343;-32.030;115.880;2023-03-16T06:03:04;1.17;;;0.10;;
72369;SDS011;60343;-32.030;115.880;2023-03-16T06:05:38;0.95;;;0.00;;
72369;SDS011;60343;-32.030;115.880;2023-03-16T06:08:19;0.20;;;0.00;;
72369;SDS011;60343;-32.030;115.880;2023-03-16T06:10:53;0.93;;;0.05;;
72369;SDS011;60343;-32.030;115.880;2023-03-16T06:13:29;0.55;;;0.03;;
72369;SDS011;60343;-32.030;115.880;2023-03-16T06:16:03;0.75;;;0.00;;
72369;SDS011;60343;-32.030;115.880;2023-03-16T06:18:39;0.38;;;0.00;;
72369;SDS011;60343;-32.030;115.880;2023-03-16T06:21:14;0.28;;;0.03;;
72369;SDS011;60343;-32.030;115.880;2023-03-16T06:23:54;2.33;;;0.20;;
72369;SDS011;60343;-32.030;115.880;2023-03-16T06:26:28;2.85;;;0.25;;
72369;SDS011;60343;-32.030;115.880;2023-03-16T06:29:03;1.80;;;0.20;;
72369;SDS011;60343;-32.030;115.880;2023-03-16T06:31:37;2.20;;;0.20;;
72369;SDS011;60343;-32.030;115.880;2023-03-16T06:34:12;1.65;;;0.20;;
72369;SDS011;60343;-32.030;115.880;2023-03-16T06:36:46;2.05;;;0.20;;
72369;SDS011;60343;-32.030;115.880;2023-03-16T06:39:26;1.90;;;0.20;;
72369;SDS011;60343;-32.030;115.880;2023-03-16T06:42:01;1.67;;;0.20;;
72369;SDS011;60343;-32.030;115.880;2023-03-16T06:44:36;1.65;;;0.30;;
72369;SDS011;60343;-32.030;115.880;2023-03-16T06:47:10;1.38;;;0.13;;
72369;SDS011;60343;-32.030;115.880;2023-03-16T06:49:44;1.20;;;0.10;;
72369;SDS011;60343;-32.030;115.880;2023-03-16T06:52:20;1.05;;;0.20;;
72369;SDS011;60343;-32.030;115.880;2023-03-16T06:55:00;3.25;;;0.20;;
72369;SDS011;60343;-32.030;115.880;2023-03-16T06:57:35;3.05;;;0.25;;
72369;SDS011;60343;-32.030;115.880;2023-03-16T07:00:11;2.35;;;0.30;;
72369;SDS011;60343;-32.030;115.880;2023-03-16T07:02:47;3.30;;;0.40;;
72369;SDS011;60343;-32.030;115.880;2023-03-16T07:05:22;3.75;;;0.30;;
72369;SDS011;60343;-32.030;115.880;2023-03-16T07:07:56;10.10;;;1.35;;
72369;SDS011;60343;-32.030;115.880;2023-03-16T07:10:35;6.95;;;0.73;;
72369;SDS011;60343;-32.030;115.880;2023-03-16T07:13:10;4.07;;;0.40;;
72369;SDS011;60343;-32.030;115.880;2023-03-16T07:15:44;0.85;;;0.20;;
72369;SDS011;60343;-32.030;115.880;2023-03-16T07:18:21;1.70;;;0.30;;
72369;SDS011;60343;-32.030;115.880;2023-03-16T07:20:57;3.55;;;0.30;;
72369;SDS011;60343;-32.030;115.880;2023-03-16T07:23:31;2.58;;;0.38;;
72369;SDS011;60343;-32.030;115.880;2023-03-16T07:26:11;2.90;;;0.30;;
72369;SDS011;60343;-32.030;115.880;2023-03-16T07:28:46;6.22;;;0.80;;
72369;SDS011;60343;-32.030;115.880;2023-03-16T07:31:20;2.70;;;0.30;;
72369;SDS011;60343;-32.030;115.880;2023-03-16T07:33:54;1.10;;;0.10;;
72369;SDS011;60343;-32.030;115.880;2023-03-16T07:36:29;3.50;;;0.30;;
72369;SDS011;60343;-32.030;115.880;2023-03-16T07:39:03;5.88;;;0.65;;
72369;SDS011;60343;-32.030;115.880;2023-03-16T07:41:45;3.30;;;0.40;;
72369;SDS011;60343;-32.030;115.880;2023-03-16T07:44:19;1.30;;;0.30;;
72369;SDS011;60343;-32.030;115.880;2023-03-16T07:46:53;3.97;;;0.35;;
72369;SDS011;60343;-32.030;115.880;2023-03-16T07:49:30;3.42;;;0.35;;
72369;SDS011;60343;-32.030;115.880;2023-03-16T07:52:06;2.90;;;0.38;;
72369;SDS011;60343;-32.030;115.880;2023-03-16T07:54:41;2.17;;;0.25;;
72369;SDS011;60343;-32.030;115.880;2023-03-16T07:57:22;2.33;;;0.30;;
72369;SDS011;60343;-32.030;115.880;2023-03-16T07:59:57;3.80;;;0.40;;
72369;SDS011;60343;-32.030;115.880;2023-03-16T08:02:32;4.03;;;0.50;;
72369;SDS011;60343;-32.030;115.880;2023-03-16T08:05:09;3.38;;;0.50;;
72369;SDS011;60343;-32.030;115.880;2023-03-16T08:07:43;8.30;;;0.60;;
72369;SDS011;60343;-32.030;115.880;2023-03-16T08:10:18;4.85;;;0.40;;
72369;SDS011;60343;-32.030;115.880;2023-03-16T08:12:58;3.70;;;0.50;;
72369;SDS011;60343;-32.030;115.880;2023-03-16T08:15:33;3.08;;;0.40;;
72369;SDS011;60343;-32.030;115.880;2023-03-16T08:18:08;3.45;;;0.40;;
72369;SDS011;60343;-32.030;115.880;2023-03-16T08:20:42;4.78;;;0.75;;
72369;SDS011;60343;-32.030;115.880;2023-03-16T08:23:19;3.85;;;0.45;;
72369;SDS011;60343;-32.030;115.880;2023-03-16T08:25:55;3.97;;;0.40;;
72369;SDS011;60343;-32.030;115.880;2023-03-16T08:28:43;6.10;;;0.50;;
72369;SDS011;60343;-32.030;115.880;2023-03-16T08:31:18;3.42;;;0.47;;
72369;SDS011;60343;-32.030;115.880;2023-03-16T08:33:53;4.30;;;0.50;;
72369;SDS011;60343;-32.030;115.880;2023-03-16T08:36:29;4.32;;;0.60;;
72369;SDS011;60343;-32.030;115.880;2023-03-16T08:39:04;4.57;;;0.77;;
72369;SDS011;60343;-32.030;115.880;2023-03-16T08:41:39;5.60;;;0.70;;
72369;SDS011;60343;-32.030;115.880;2023-03-16T08:44:19;5.85;;;0.80;;
72369;SDS011;60343;-32.030;115.880;2023-03-16T08:46:53;3.92;;;0.52;;
72369;SDS011;60343;-32.030;115.880;2023-03-16T08:49:27;5.22;;;0.77;;
72369;SDS011;60343;-32.030;115.880;2023-03-16T08:52:02;5.28;;;0.60;;
72369;SDS011;60343;-32.030;115.880;2023-03-16T08:54:38;3.33;;;0.52;;
72369;SDS011;60343;-32.030;115.880;2023-03-16T08:57:13;4.90;;;0.60;;
72369;SDS011;60343;-32.030;115.880;2023-03-16T08:59:53;5.90;;;0.70;;
72369;SDS011;60343;-32.030;115.880;2023-03-16T09:02:34;4.00;;;0.55;;
72369;SDS011;60343;-32.030;115.880;2023-03-16T09:05:09;3.45;;;0.30;;
72369;SDS011;60343;-32.030;115.880;2023-03-16T09:07:44;3.42;;;0.32;;
72369;SDS011;60343;-32.030;115.880;2023-03-16T09:10:19;1.83;;;0.28;;
72369;SDS011;60343;-32.030;115.880;2023-03-16T09:12:54;1.92;;;0.30;;
72369;SDS011;60343;-32.030;115.880;2023-03-16T09:15:34;3.58;;;0.30;;
72369;SDS011;60343;-32.030;115.880;2023-03-16T09:18:09;3.03;;;0.40;;
72369;SDS011;60343;-32.030;115.880;2023-03-16T09:20:44;3.45;;;0.50;;
72369;SDS011;60343;-32.030;115.880;2023-03-16T09:23:19;3.03;;;0.40;;
72369;SDS011;60343;-32.030;115.880;2023-03-16T09:25:56;3.80;;;0.50;;
72369;SDS011;60343;-32.030;115.880;2023-03-16T09:28:32;2.92;;;0.40;;
72369;SDS011;60343;-32.030;115.880;2023-03-16T09:31:14;4.22;;;0.50;;
72369;SDS011;60343;-32.030;115.880;2023-03-16T09:33:49;3.20;;;0.60;;
72369;SDS011;60343;-32.030;115.880;2023-03-16T09:36:24;3.63;;;0.60;;
72369;SDS011;60343;-32.030;115.880;2023-03-16T09:38:58;3.90;;;0.60;;
72369;SDS011;60343;-32.030;115.880;2023-03-16T09:41:37;2.45;;;0.60;;
72369;SDS011;60343;-32.030;115.880;2023-03-16T09:44:27;5.38;;;0.90;;
72369;SDS011;60343;-32.030;115.880;2023-03-16T09:47:16;4.70;;;0.80;;
72369;SDS011;60343;-32.030;115.880;2023-03-16T09:49:59;3.35;;;0.75;;
72369;SDS011;60343;-32.030;115.880;2023-03-16T09:52:38;4.82;;;0.80;;
72369;SDS011;60343;-32.030;115.880;2023-03-16T09:55:18;3.58;;;1.05;;
72369;SDS011;60343;-32.030;115.880;2023-03-16T09:58:00;3.15;;;0.73;;
72369;SDS011;60343;-32.030;115.880;2023-03-16T10:00:38;6.03;;;0.70;;
72369;SDS011;60343;-32.030;115.880;2023-03-16T10:03:28;5.30;;;0.80;;
72369;SDS011;60343;-32.030;115.880;2023-03-16T10:06:08;2.83;;;0.77;;
72369;SDS011;60343;-32.030;115.880;2023-03-16T10:08:55;4.07;;;0.63;;
72369;SDS011;60343;-32.030;115.880;2023-03-16T10:11:37;2.67;;;0.70;;
72369;SDS011;60343;-32.030;115.880;2023-03-16T10:14:15;8.73;;;0.88;;
72369;SDS011;60343;-32.030;115.880;2023-03-16T10:16:56;3.60;;;0.82;;
72369;SDS011;60343;-32.030;115.880;2023-03-16T10:19:41;3.10;;;0.70;;
72369;SDS011;60343;-32.030;115.880;2023-03-16T10:22:19;4.85;;;0.80;;
72369;SDS011;60343;-32.030;115.880;2023-03-16T10:24:56;6.13;;;0.75;;
72369;SDS011;60343;-32.030;115.880;2023-03-16T10:27:38;3.38;;;0.55;;
72369;SDS011;60343;-32.030;115.880;2023-03-16T10:30:16;1.95;;;0.70;;
72369;SDS011;60343;-32.030;115.880;2023-03-16T10:32:55;3.75;;;0.60;;
72369;SDS011;60343;-32.030;115.880;2023-03-16T10:35:39;4.15;;;0.88;;
72369;SDS011;60343;-32.030;115.880;2023-03-16T10:38:27;2.63;;;0.70;;
72369;SDS011;60343;-32.030;115.880;2023-03-16T10:41:04;7.03;;;1.10;;
72369;SDS011;60343;-32.030;115.880;2023-03-16T10:43:55;4.63;;;1.10;;
72369;SDS011;60343;-32.030;115.880;2023-03-16T10:50:21;4.72;;;1.00;;
72369;SDS011;60343;-32.030;115.880;2023-03-16T10:53:09;4.65;;;1.05;;
72369;SDS011;60343;-32.030;115.880;2023-03-16T10:55:55;6.60;;;1.00;;
72369;SDS011;60343;-32.030;115.880;2023-03-16T10:58:31;3.95;;;0.93;;
72369;SDS011;60343;-32.030;115.880;2023-03-16T11:01:14;3.00;;;0.60;;
72369;SDS011;60343;-32.030;115.880;2023-03-16T11:03:53;4.30;;;0.95;;
72369;SDS011;60343;-32.030;115.880;2023-03-16T11:06:29;5.60;;;1.02;;
72369;SDS011;60343;-32.030;115.880;2023-03-16T11:09:11;5.22;;;1.00;;
72369;SDS011;60343;-32.030;115.880;2023-03-16T11:11:51;4.55;;;1.00;;
72369;SDS011;60343;-32.030;115.880;2023-03-16T11:14:26;5.10;;;0.90;;
72369;SDS011;60343;-32.030;115.880;2023-03-16T11:17:02;4.43;;;0.80;;
72369;SDS011;60343;-32.030;115.880;2023-03-16T11:19:46;2.85;;;0.75;;
72369;SDS011;60343;-32.030;115.880;2023-03-16T11:22:25;3.58;;;0.80;;
72369;SDS011;60343;-32.030;115.880;2023-03-16T11:25:08;4.53;;;0.93;;
72369;SDS011;60343;-32.030;115.880;2023-03-16T11:27:48;3.83;;;0.75;;
72369;SDS011;60343;-32.030;115.880;2023-03-16T11:30:28;4.28;;;1.00;;
72369;SDS011;60343;-32.030;115.880;2023-03-16T11:33:07;2.88;;;0.70;;
72369;SDS011;60343;-32.030;115.880;2023-03-16T11:35:45;4.47;;;0.88;;
72369;SDS011;60343;-32.030;115.880;2023-03-16T11:38:26;4.15;;;1.10;;
72369;SDS011;60343;-32.030;115.880;2023-03-16T11:41:16;2.83;;;0.80;;
72369;SDS011;60343;-32.030;115.880;2023-03-16T11:44:01;5.85;;;1.13;;
72369;SDS011;60343;-32.030;115.880;2023-03-16T11:46:46;4.03;;;1.00;;
72369;SDS011;60343;-32.030;115.880;2023-03-16T11:49:34;4.07;;;0.90;;
72369;SDS011;60343;-32.030;115.880;2023-03-16T11:52:17;4.43;;;0.90;;
72369;SDS011;60343;-32.030;115.880;2023-03-16T11:54:59;8.15;;;1.10;;
72369;SDS011;60343;-32.030;115.880;2023-03-16T11:57:50;6.28;;;0.98;;
72369;SDS011;60343;-32.030;115.880;2023-03-16T12:00:35;2.97;;;0.80;;
72369;SDS011;60343;-32.030;115.880;2023-03-16T12:03:28;2.20;;;0.70;;
72369;SDS011;60343;-32.030;115.880;2023-03-16T12:06:18;5.15;;;0.80;;
72369;SDS011;60343;-32.030;115.880;2023-03-16T12:11:41;3.33;;;0.70;;
72369;SDS011;60343;-32.030;115.880;2023-03-16T12:17:06;4.47;;;1.08;;
72369;SDS011;60343;-32.030;115.880;2023-03-16T12:19:48;4.18;;;0.75;;
72369;SDS011;60343;-32.030;115.880;2023-03-16T12:22:25;5.03;;;0.68;;
72369;SDS011;60343;-32.030;115.880;2023-03-16T12:25:03;6.72;;;0.90;;
72369;SDS011;60343;-32.030;115.880;2023-03-16T12:27:50;4.47;;;0.80;;
72369;SDS011;60343;-32.030;115.880;2023-03-16T12:30:35;4.38;;;0.57;;
72369;SDS011;60343;-32.030;115.880;2023-03-16T12:33:19;7.45;;;0.88;;
72369;SDS011;60343;-32.030;115.880;2023-03-16T12:36:00;6.55;;;0.95;;
72369;SDS011;60343;-32.030;115.880;2023-03-16T12:38:43;5.28;;;0.90;;
72369;SDS011;60343;-32.030;115.880;2023-03-16T12:41:24;6.50;;;0.93;;
72369;SDS011;60343;-32.030;115.880;2023-03-16T12:44:09;4.30;;;0.95;;
72369;SDS011;60343;-32.030;115.880;2023-03-16T12:46:54;6.53;;;0.73;;
72369;SDS011;60343;-32.030;115.880;2023-03-16T12:49:33;5.30;;;0.50;;
72369;SDS011;60343;-32.030;115.880;2023-03-16T12:52:08;3.55;;;0.65;;
72369;SDS011;60343;-32.030;115.880;2023-03-16T12:54:51;5.28;;;0.60;;
72369;SDS011;60343;-32.030;115.880;2023-03-16T12:57:39;8.75;;;0.88;;
72369;SDS011;60343;-32.030;115.880;2023-03-16T13:00:14;4.82;;;0.70;;
72369;SDS011;60343;-32.030;115.880;2023-03-16T13:02:56;8.55;;;0.60;;
72369;SDS011;60343;-32.030;115.880;2023-03-16T13:05:31;3.00;;;0.30;;
72369;SDS011;60343;-32.030;115.880;2023-03-16T13:08:09;3.45;;;0.47;;
72369;SDS011;60343;-32.030;115.880;2023-03-16T13:10:59;3.55;;;0.50;;
72369;SDS011;60343;-32.030;115.880;2023-03-16T13:13:35;4.45;;;0.40;;
72369;SDS011;60343;-32.030;115.880;2023-03-16T13:16:25;4.53;;;0.50;;
72369;SDS011;60343;-32.030;115.880;2023-03-16T13:19:09;4.57;;;0.52;;
72369;SDS011;60343;-32.030;115.880;2023-03-16T13:22:01;3.20;;;0.40;;
72369;SDS011;60343;-32.030;115.880;2023-03-16T13:24:38;4.20;;;0.55;;
72369;SDS011;60343;-32.030;115.880;2023-03-16T13:27:24;2.88;;;0.40;;
72369;SDS011;60343;-32.030;115.880;2023-03-16T13:30:11;3.10;;;0.40;;
72369;SDS011;60343;-32.030;115.880;2023-03-16T13:32:52;4.70;;;0.43;;
72369;SDS011;60343;-32.030;115.880;2023-03-16T13:35:33;4.93;;;0.50;;
72369;SDS011;60343;-32.030;115.880;2023-03-16T13:38:12;5.88;;;0.45;;
72369;SDS011;60343;-32.030;115.880;2023-03-16T13:40:48;4.93;;;0.52;;
72369;SDS011;60343;-32.030;115.880;2023-03-16T13:43:24;4.40;;;0.40;;
72369;SDS011;60343;-32.030;115.880;2023-03-16T13:46:12;5.78;;;0.60;;
72369;SDS011;60343;-32.030;115.880;2023-03-16T13:48:47;4.00;;;0.60;;
72369;SDS011;60343;-32.030;115.880;2023-03-16T13:51:27;6.20;;;0.55;;
72369;SDS011;60343;-32.030;115.880;2023-03-16T13:54:14;3.97;;;0.40;;
72369;SDS011;60343;-32.030;115.880;2023-03-16T13:56:56;5.53;;;0.70;;
72369;SDS011;60343;-32.030;115.880;2023-03-16T13:59:34;5.10;;;0.60;;
72369;SDS011;60343;-32.030;115.880;2023-03-16T14:02:15;4.97;;;1.10;;
72369;SDS011;60343;-32.030;115.880;2023-03-16T14:04:51;4.55;;;0.50;;
72369;SDS011;60343;-32.030;115.880;2023-03-16T14:07:35;5.68;;;0.52;;
72369;SDS011;60343;-32.030;115.880;2023-03-16T14:10:11;4.90;;;0.47;;
72369;SDS011;60343;-32.030;115.880;2023-03-16T14:12:52;5.93;;;0.50;;
72369;SDS011;60343;-32.030;115.880;2023-03-16T14:15:28;5.47;;;0.40;;
72369;SDS011;60343;-32.030;115.880;2023-03-16T14:18:11;4.72;;;0.43;;
72369;SDS011;60343;-32.030;115.880;2023-03-16T14:20:49;9.23;;;0.60;;
72369;SDS011;60343;-32.030;115.880;2023-03-16T14:23:31;5.40;;;0.57;;
72369;SDS011;60343;-32.030;115.880;2023-03-16T14:26:10;6.25;;;0.60;;
72369;SDS011;60343;-32.030;115.880;2023-03-16T14:28:56;7.38;;;0.68;;
72369;SDS011;60343;-32.030;115.880;2023-03-16T14:31:34;5.20;;;0.70;;
72369;SDS011;60343;-32.030;115.880;2023-03-16T14:34:20;3.45;;;0.40;;
72369;SDS011;60343;-32.030;115.880;2023-03-16T14:37:06;6.05;;;0.43;;
72369;SDS011;60343;-32.030;115.880;2023-03-16T14:39:56;7.70;;;0.60;;
72369;SDS011;60343;-32.030;115.880;2023-03-16T14:42:33;7.03;;;0.50;;
72369;SDS011;60343;-32.030;115.880;2023-03-16T14:45:11;5.13;;;0.90;;
72369;SDS011;60343;-32.030;115.880;2023-03-16T14:47:48;5.38;;;0.50;;
72369;SDS011;60343;-32.030;115.880;2023-03-16T14:50:24;5.10;;;0.63;;
72369;SDS011;60343;-32.030;115.880;2023-03-16T14:52:58;1.88;;;0.40;;
72369;SDS011;60343;-32.030;115.880;2023-03-16T14:55:43;7.07;;;0.90;;
72369;SDS011;60343;-32.030;115.880;2023-03-16T14:58:18;3.97;;;0.95;;
72369;SDS011;60343;-32.030;115.880;2023-03-16T15:00:53;6.82;;;0.50;;
72369;SDS011;60343;-32.030;115.880;2023-03-16T15:03:29;6.30;;;1.02;;
72369;SDS011;60343;-32.030;115.880;2023-03-16T15:06:05;5.78;;;0.60;;
72369;SDS011;60343;-32.030;115.880;2023-03-16T15:08:40;4.10;;;0.40;;
72369;SDS011;60343;-32.030;115.880;2023-03-16T15:11:25;6.32;;;0.63;;
72369;SDS011;60343;-32.030;115.880;2023-03-16T15:14:03;6.32;;;0.80;;
72369;SDS011;60343;-32.030;115.880;2023-03-16T15:17:05;3.13;;;0.50;;
72369;SDS011;60343;-32.030;115.880;2023-03-16T15:19:40;10.32;;;1.00;;
72369;SDS011;60343;-32.030;115.880;2023-03-16T15:22:15;6.03;;;0.82;;